sensor_id;sensor_type;location;lat;lon;timestamp;P1;durP1;ratioP1;P2;durP2;ratioP2
82722;SDS011;72450;42.008;21.356;2024-01-16T00:02:00;152.05;;;78.70;;
82722;SDS011;72450;42.008;21.356;2024-01-16T00:04:27;138.05;;;73.25;;
82722;SDS011;72450;42.008;21.356;2024-01-16T00:06:55;152.27;;;76.13;;
82722;SDS011;72450;42.008;21.356;2024-01-16T00:09:21;134.70;;;73.10;;
82722;SDS011;72450;42.008;21.356;2024-01-16T00:11:47;136.73;;;72.18;;
82722;SDS011;72450;42.008;21.356;2024-01-16T00:14:13;135.10;;;68.57;;
82722;SDS011;72450;42.008;21.356;2024-01-16T00:16:42;129.18;;;69.72;;
82722;SDS011;72450;42.008;21.356;2024-01-16T00:19:10;138.70;;;68.43;;
82722;SDS011;72450;42.008;21.356;2024-01-16T00:21:40;139.75;;;74.55;;
82722;SDS011;72450;42.008;21.356;2024-01-16T00:24:06;131.02;;;69.68;;
82722;SDS011;72450;42.008;21.356;2024-01-16T00:26:32;102.20;;;52.33;;
82722;SDS011;72450;42.008;21.356;2024-01-16T00:28:58;119.07;;;58.97;;
82722;SDS011;72450;42.008;21.356;2024-01-16T00:31:24;94.47;;;45.97;;
82722;SDS011;72450;42.008;21.356;2024-01-16T00:33:50;107.90;;;55.05;;
82722;SDS011;72450;42.008;21.356;2024-01-16T00:36:16;102.47;;;52.58;;
82722;SDS011;72450;42.008;21.356;2024-01-16T00:38:43;108.53;;;52.05;;
82722;SDS011;72450;42.008;21.356;2024-01-16T00:41:10;74.03;;;38.53;;
82722;SDS011;72450;42.008;21.356;2024-01-16T00:43:36;88.15;;;47.38;;
82722;SDS011;72450;42.008;21.356;2024-01-16T00:46:02;96.10;;;51.97;;
82722;SDS011;72450;42.008;21.356;2024-01-16T00:48:28;95.47;;;48.78;;
82722;SDS011;72450;42.008;21.356;2024-01-16T00:50:54;92.07;;;50.25;;
82722;SDS011;72450;42.008;21.356;2024-01-16T00:53:20;86.90;;;46.40;;
82722;SDS011;72450;42.008;21.356;2024-01-16T00:55:46;91.57;;;47.28;;
82722;SDS011;72450;42.008;21.356;2024-01-16T00:58:12;84.10;;;45.78;;
82722;SDS011;72450;42.008;21.356;2024-01-16T01:00:38;91.00;;;47.67;;
82722;SDS011;72450;42.008;21.356;2024-01-16T01:03:04;98.30;;;46.00;;
82722;SDS011;72450;42.008;21.356;2024-01-16T01:05:32;79.28;;;42.20;;
82722;SDS011;72450;42.008;21.356;2024-01-16T01:07:58;100.00;;;49.33;;
82722;SDS011;72450;42.008;21.356;2024-01-16T01:10:24;95.00;;;49.38;;
82722;SDS011;72450;42.008;21.356;2024-01-16T01:12:51;86.30;;;45.97;;
82722;SDS011;72450;42.008;21.356;2024-01-16T01:15:19;77.60;;;40.40;;
82722;SDS011;72450;42.008;21.356;2024-01-16T01:17:47;89.82;;;44.55;;
82722;SDS011;72450;42.008;21.356;2024-01-16T01:20:14;75.88;;;40.25;;
82722;SDS011;72450;42.008;21.356;2024-01-16T01:22:40;80.60;;;41.35;;
82722;SDS011;72450;42.008;21.356;2024-01-16T01:25:07;81.70;;;40.50;;
82722;SDS011;72450;42.008;21.356;2024-01-16T01:27:33;82.25;;;43.08;;
82722;SDS011;72450;42.008;21.356;2024-01-16T01:29:59;122.45;;;59.15;;
82722;SDS011;72450;42.008;21.356;2024-01-16T01:32:25;94.40;;;45.80;;
82722;SDS011;72450;42.008;21.356;2024-01-16T01:34:52;81.30;;;41.28;;
82722;SDS011;72450;42.008;21.356;2024-01-16T01:37:18;71.18;;;36.72;;
82722;SDS011;72450;42.008;21.356;2024-01-16T01:39:44;73.13;;;39.70;;
82722;SDS011;72450;42.008;21.356;2024-01-16T01:42:10;67.43;;;32.70;;
82722;SDS011;72450;42.008;21.356;2024-01-16T01:44:36;65.03;;;35.53;;
82722;SDS011;72450;42.008;21.356;2024-01-16T01:47:03;68.32;;;32.88;;
82722;SDS011;72450;42.008;21.356;2024-01-16T01:49:30;55.42;;;28.15;;
82722;SDS011;72450;42.008;21.356;2024-01-16T01:51:57;54.88;;;29.30;;
82722;SDS011;72450;42.008;21.356;2024-01-16T01:54:23;47.50;;;26.23;;
82722;SDS011;72450;42.008;21.356;2024-01-16T01:56:50;44.28;;;24.63;;
82722;SDS011;72450;42.008;21.356;2024-01-16T01:59:19;47.25;;;27.30;;
82722;SDS011;72450;42.008;21.356;2024-01-16T02:01:46;44.17;;;23.27;;
82722;SDS011;72450;42.008;21.356;2024-01-16T02:04:14;52.38;;;27.60;;
82722;SDS011;72450;42.008;21.356;2024-01-16T02:09:09;53.08;;;25.88;;
82722;SDS011;72450;42.008;21.356;2024-01-16T02:11:35;49.13;;;26.67;;
82722;SDS011;72450;42.008;21.356;2024-01-16T02:14:01;45.22;;;24.55;;
82722;SDS011;72450;42.008;21.356;2024-01-16T02:16:34;47.70;;;25.17;;
82722;SDS011;72450;42.008;21.356;2024-01-16T02:19:01;49.67;;;28.10;;
82722;SDS011;72450;42.008;21.356;2024-01-16T02:21:27;65.80;;;34.30;;
82722;SDS011;72450;42.008;21.356;2024-01-16T02:23:54;59.60;;;32.33;;
82722;SDS011;72450;42.008;21.356;2024-01-16T02:26:20;68.25;;;32.97;;
82722;SDS011;72450;42.008;21.356;2024-01-16T02:28:46;71.45;;;35.08;;
82722;SDS011;72450;42.008;21.356;2024-01-16T02:31:12;71.07;;;37.55;;
82722;SDS011;72450;42.008;21.356;2024-01-16T02:33:38;76.28;;;39.78;;
82722;SDS011;72450;42.008;21.356;2024-01-16T02:36:05;90.75;;;48.58;;
82722;SDS011;72450;42.008;21.356;2024-01-16T02:38:31;95.25;;;48.92;;
82722;SDS011;72450;42.008;21.356;2024-01-16T02:40:57;92.28;;;47.83;;
82722;SDS011;72450;42.008;21.356;2024-01-16T02:43:23;93.57;;;52.63;;
82722;SDS011;72450;42.008;21.356;2024-01-16T02:45:51;97.70;;;50.70;;
82722;SDS011;72450;42.008;21.356;2024-01-16T02:48:18;109.28;;;55.10;;
82722;SDS011;72450;42.008;21.356;2024-01-16T02:50:44;109.38;;;56.65;;
82722;SDS011;72450;42.008;21.356;2024-01-16T02:53:10;97.10;;;45.28;;
82722;SDS011;72450;42.008;21.356;2024-01-16T02:55:36;100.50;;;52.42;;
82722;SDS011;72450;42.008;21.356;2024-01-16T02:58:02;96.97;;;46.28;;
82722;SDS011;72450;42.008;21.356;2024-01-16T03:00:28;31.90;;;16.80;;
82722;SDS011;72450;42.008;21.356;2024-01-16T03:02:55;86.25;;;44.42;;
82722;SDS011;72450;42.008;21.356;2024-01-16T03:05:21;86.20;;;46.53;;
82722;SDS011;72450;42.008;21.356;2024-01-16T03:07:47;88.93;;;47.47;;
82722;SDS011;72450;42.008;21.356;2024-01-16T03:10:13;94.20;;;47.17;;
82722;SDS011;72450;42.008;21.356;2024-01-16T03:12:39;94.93;;;50.72;;
82722;SDS011;72450;42.008;21.356;2024-01-16T03:15:06;94.93;;;50.40;;
82722;SDS011;72450;42.008;21.356;2024-01-16T03:17:32;96.40;;;49.40;;
82722;SDS011;72450;42.008;21.356;2024-01-16T03:19:58;96.88;;;51.40;;
82722;SDS011;72450;42.008;21.356;2024-01-16T03:22:24;94.72;;;49.95;;
82722;SDS011;72450;42.008;21.356;2024-01-16T03:24:50;109.50;;;56.00;;
82722;SDS011;72450;42.008;21.356;2024-01-16T03:27:16;105.60;;;49.28;;
82722;SDS011;72450;42.008;21.356;2024-01-16T03:29:43;107.50;;;56.15;;
82722;SDS011;72450;42.008;21.356;2024-01-16T03:32:09;109.10;;;56.92;;
82722;SDS011;72450;42.008;21.356;2024-01-16T03:34:35;105.00;;;53.53;;
82722;SDS011;72450;42.008;21.356;2024-01-16T03:37:01;108.68;;;54.97;;
82722;SDS011;72450;42.008;21.356;2024-01-16T03:39:27;31.02;;;15.75;;
82722;SDS011;72450;42.008;21.356;2024-01-16T03:41:53;67.40;;;37.00;;
82722;SDS011;72450;42.008;21.356;2024-01-16T03:44:19;51.28;;;28.38;;
82722;SDS011;72450;42.008;21.356;2024-01-16T03:46:45;70.88;;;38.80;;
82722;SDS011;72450;42.008;21.356;2024-01-16T03:49:11;85.70;;;45.17;;
82722;SDS011;72450;42.008;21.356;2024-01-16T03:51:37;49.47;;;25.55;;
82722;SDS011;72450;42.008;21.356;2024-01-16T03:54:03;77.18;;;37.25;;
82722;SDS011;72450;42.008;21.356;2024-01-16T03:56:29;67.50;;;35.17;;
82722;SDS011;72450;42.008;21.356;2024-01-16T03:58:56;55.50;;;28.77;;
82722;SDS011;72450;42.008;21.356;2024-01-16T04:01:34;34.45;;;18.77;;
82722;SDS011;72450;42.008;21.356;2024-01-16T04:04:03;41.03;;;23.13;;
82722;SDS011;72450;42.008;21.356;2024-01-16T04:06:31;46.40;;;22.45;;
82722;SDS011;72450;42.008;21.356;2024-01-16T04:08:58;49.25;;;25.20;;
82722;SDS011;72450;42.008;21.356;2024-01-16T04:11:24;51.28;;;25.55;;
82722;SDS011;72450;42.008;21.356;2024-01-16T04:13:50;43.85;;;25.60;;
82722;SDS011;72450;42.008;21.356;2024-01-16T04:16:16;49.30;;;25.77;;
82722;SDS011;72450;42.008;21.356;2024-01-16T04:18:42;53.72;;;28.20;;
82722;SDS011;72450;42.008;21.356;2024-01-16T04:21:09;54.10;;;28.83;;
82722;SDS011;72450;42.008;21.356;2024-01-16T04:23:36;56.10;;;31.50;;
82722;SDS011;72450;42.008;21.356;2024-01-16T04:26:02;54.45;;;29.38;;
82722;SDS011;72450;42.008;21.356;2024-01-16T04:28:28;106.07;;;57.05;;
82722;SDS011;72450;42.008;21.356;2024-01-16T04:30:54;140.60;;;74.32;;
82722;SDS011;72450;42.008;21.356;2024-01-16T04:33:20;138.70;;;72.25;;
82722;SDS011;72450;42.008;21.356;2024-01-16T04:35:46;132.10;;;68.60;;
82722;SDS011;72450;42.008;21.356;2024-01-16T04:38:12;142.07;;;72.20;;
82722;SDS011;72450;42.008;21.356;2024-01-16T04:40:38;149.18;;;76.97;;
82722;SDS011;72450;42.008;21.356;2024-01-16T04:43:05;155.15;;;81.93;;
82722;SDS011;72450;42.008;21.356;2024-01-16T04:45:31;140.00;;;77.93;;
82722;SDS011;72450;42.008;21.356;2024-01-16T04:47:57;162.85;;;81.60;;
82722;SDS011;72450;42.008;21.356;2024-01-16T04:50:24;153.85;;;83.85;;
82722;SDS011;72450;42.008;21.356;2024-01-16T04:52:56;151.80;;;81.22;;
82722;SDS011;72450;42.008;21.356;2024-01-16T04:55:22;155.48;;;88.90;;
82722;SDS011;72450;42.008;21.356;2024-01-16T04:57:48;180.00;;;95.05;;
82722;SDS011;72450;42.008;21.356;2024-01-16T05:00:15;180.07;;;97.57;;
82722;SDS011;72450;42.008;21.356;2024-01-16T05:02:41;178.10;;;95.00;;
82722;SDS011;72450;42.008;21.356;2024-01-16T05:05:07;156.02;;;84.45;;
82722;SDS011;72450;42.008;21.356;2024-01-16T05:07:33;146.80;;;79.65;;
82722;SDS011;72450;42.008;21.356;2024-01-16T05:10:00;157.15;;;82.80;;
82722;SDS011;72450;42.008;21.356;2024-01-16T05:12:27;151.07;;;85.10;;
82722;SDS011;72450;42.008;21.356;2024-01-16T05:14:53;148.18;;;78.32;;
82722;SDS011;72450;42.008;21.356;2024-01-16T05:17:19;149.48;;;79.68;;
82722;SDS011;72450;42.008;21.356;2024-01-16T05:19:45;146.77;;;81.60;;
82722;SDS011;72450;42.008;21.356;2024-01-16T05:22:11;148.38;;;78.18;;
82722;SDS011;72450;42.008;21.356;2024-01-16T05:24:37;111.82;;;55.00;;
82722;SDS011;72450;42.008;21.356;2024-01-16T05:27:03;148.98;;;79.03;;
82722;SDS011;72450;42.008;21.356;2024-01-16T05:29:32;144.23;;;78.45;;
82722;SDS011;72450;42.008;21.356;2024-01-16T05:31:58;159.60;;;77.18;;
82722;SDS011;72450;42.008;21.356;2024-01-16T05:34:24;160.75;;;82.32;;
82722;SDS011;72450;42.008;21.356;2024-01-16T05:36:51;148.85;;;75.90;;
82722;SDS011;72450;42.008;21.356;2024-01-16T05:39:17;142.68;;;75.07;;
82722;SDS011;72450;42.008;21.356;2024-01-16T05:41:43;147.93;;;75.40;;
82722;SDS011;72450;42.008;21.356;2024-01-16T05:44:09;145.82;;;73.03;;
82722;SDS011;72450;42.008;21.356;2024-01-16T05:46:35;146.02;;;78.30;;
82722;SDS011;72450;42.008;21.356;2024-01-16T05:49:01;154.98;;;78.45;;
82722;SDS011;72450;42.008;21.356;2024-01-16T05:51:28;147.20;;;79.68;;
82722;SDS011;72450;42.008;21.356;2024-01-16T05:53:54;152.35;;;80.95;;
82722;SDS011;72450;42.008;21.356;2024-01-16T05:56:21;74.78;;;36.13;;
82722;SDS011;72450;42.008;21.356;2024-01-16T05:58:47;143.55;;;73.07;;
82722;SDS011;72450;42.008;21.356;2024-01-16T06:01:13;137.52;;;75.80;;
82722;SDS011;72450;42.008;21.356;2024-01-16T06:03:39;98.18;;;47.65;;
82722;SDS011;72450;42.008;21.356;2024-01-16T06:06:06;155.57;;;80.20;;
82722;SDS011;72450;42.008;21.356;2024-01-16T06:08:32;59.25;;;31.42;;
82722;SDS011;72450;42.008;21.356;2024-01-16T06:10:58;124.28;;;66.38;;
82722;SDS011;72450;42.008;21.356;2024-01-16T06:13:25;166.13;;;84.78;;
82722;SDS011;72450;42.008;21.356;2024-01-16T06:15:51;142.48;;;73.20;;
82722;SDS011;72450;42.008;21.356;2024-01-16T06:18:17;134.98;;;70.13;;
82722;SDS011;72450;42.008;21.356;2024-01-16T06:20:43;136.23;;;70.97;;
82722;SDS011;72450;42.008;21.356;2024-01-16T06:23:09;135.00;;;72.97;;
82722;SDS011;72450;42.008;21.356;2024-01-16T06:25:35;121.38;;;65.53;;
82722;SDS011;72450;42.008;21.356;2024-01-16T06:28:01;127.20;;;62.70;;
82722;SDS011;72450;42.008;21.356;2024-01-16T06:30:28;127.82;;;65.97;;
82722;SDS011;72450;42.008;21.356;2024-01-16T06:32:54;130.32;;;65.40;;
82722;SDS011;72450;42.008;21.356;2024-01-16T06:35:20;125.50;;;67.88;;
82722;SDS011;72450;42.008;21.356;2024-01-16T06:37:46;139.02;;;70.13;;
82722;SDS011;72450;42.008;21.356;2024-01-16T06:40:12;126.70;;;68.85;;
82722;SDS011;72450;42.008;21.356;2024-01-16T06:42:38;62.58;;;26.77;;
82722;SDS011;72450;42.008;21.356;2024-01-16T06:45:04;121.68;;;61.60;;
82722;SDS011;72450;42.008;21.356;2024-01-16T06:47:31;131.68;;;66.72;;
82722;SDS011;72450;42.008;21.356;2024-01-16T06:49:57;130.52;;;65.68;;
82722;SDS011;72450;42.008;21.356;2024-01-16T06:52:23;83.03;;;41.78;;
82722;SDS011;72450;42.008;21.356;2024-01-16T06:54:50;92.07;;;52.85;;
82722;SDS011;72450;42.008;21.356;2024-01-16T06:57:16;67.70;;;37.35;;
82722;SDS011;72450;42.008;21.356;2024-01-16T06:59:42;86.60;;;47.63;;
82722;SDS011;72450;42.008;21.356;2024-01-16T07:02:08;76.70;;;39.47;;
82722;SDS011;72450;42.008;21.356;2024-01-16T07:04:35;42.08;;;21.27;;
82722;SDS011;72450;42.008;21.356;2024-01-16T07:07:01;63.90;;;32.85;;
82722;SDS011;72450;42.008;21.356;2024-01-16T07:09:28;56.25;;;28.25;;
82722;SDS011;72450;42.008;21.356;2024-01-16T07:11:54;39.08;;;21.90;;
82722;SDS011;72450;42.008;21.356;2024-01-16T07:14:20;36.85;;;18.38;;
82722;SDS011;72450;42.008;21.356;2024-01-16T07:16:46;26.70;;;11.85;;
82722;SDS011;72450;42.008;21.356;2024-01-16T07:19:12;16.00;;;8.38;;
82722;SDS011;72450;42.008;21.356;2024-01-16T07:21:38;18.45;;;9.35;;
82722;SDS011;72450;42.008;21.356;2024-01-16T07:24:04;21.33;;;10.85;;
82722;SDS011;72450;42.008;21.356;2024-01-16T07:26:31;25.75;;;12.15;;
82722;SDS011;72450;42.008;21.356;2024-01-16T07:28:57;21.10;;;9.65;;
82722;SDS011;72450;42.008;21.356;2024-01-16T07:31:23;20.30;;;10.98;;
82722;SDS011;72450;42.008;21.356;2024-01-16T07:33:49;13.68;;;7.78;;
82722;SDS011;72450;42.008;21.356;2024-01-16T07:36:16;9.15;;;4.82;;
82722;SDS011;72450;42.008;21.356;2024-01-16T07:38:42;6.30;;;3.47;;
82722;SDS011;72450;42.008;21.356;2024-01-16T07:41:08;3.45;;;2.17;;
82722;SDS011;72450;42.008;21.356;2024-01-16T07:43:34;6.15;;;2.47;;
82722;SDS011;72450;42.008;21.356;2024-01-16T07:46:01;4.97;;;2.22;;
82722;SDS011;72450;42.008;21.356;2024-01-16T07:48:28;3.35;;;2.30;;
82722;SDS011;72450;42.008;21.356;2024-01-16T07:50:54;6.65;;;3.20;;
82722;SDS011;72450;42.008;21.356;2024-01-16T07:53:20;3.35;;;2.05;;
82722;SDS011;72450;42.008;21.356;2024-01-16T07:55:46;3.97;;;1.52;;
82722;SDS011;72450;42.008;21.356;2024-01-16T07:58:13;2.97;;;2.03;;
82722;SDS011;72450;42.008;21.356;2024-01-16T08:00:39;23.35;;;12.10;;
82722;SDS011;72450;42.008;21.356;2024-01-16T08:03:07;20.85;;;10.77;;
82722;SDS011;72450;42.008;21.356;2024-01-16T08:05:33;6.13;;;3.47;;
82722;SDS011;72450;42.008;21.356;2024-01-16T08:07:59;25.70;;;15.48;;
82722;SDS011;72450;42.008;21.356;2024-01-16T08:10:25;7.35;;;3.03;;
82722;SDS011;72450;42.008;21.356;2024-01-16T08:12:51;19.17;;;9.02;;
82722;SDS011;72450;42.008;21.356;2024-01-16T08:15:17;6.90;;;3.65;;
82722;SDS011;72450;42.008;21.356;2024-01-16T08:17:43;3.60;;;1.42;;
82722;SDS011;72450;42.008;21.356;2024-01-16T08:20:10;5.28;;;2.90;;
82722;SDS011;72450;42.008;21.356;2024-01-16T08:22:36;6.75;;;3.92;;
82722;SDS011;72450;42.008;21.356;2024-01-16T08:25:03;19.25;;;8.13;;
82722;SDS011;72450;42.008;21.356;2024-01-16T08:27:32;28.80;;;11.95;;
82722;SDS011;72450;42.008;21.356;2024-01-16T08:29:58;6.75;;;3.92;;
82722;SDS011;72450;42.008;21.356;2024-01-16T08:32:24;11.10;;;5.28;;
82722;SDS011;72450;42.008;21.356;2024-01-16T08:34:51;10.88;;;5.30;;
82722;SDS011;72450;42.008;21.356;2024-01-16T08:37:17;8.68;;;5.10;;
82722;SDS011;72450;42.008;21.356;2024-01-16T08:39:43;4.93;;;3.42;;
82722;SDS011;72450;42.008;21.356;2024-01-16T08:42:09;13.20;;;7.15;;
82722;SDS011;72450;42.008;21.356;2024-01-16T08:44:37;14.10;;;6.95;;
82722;SDS011;72450;42.008;21.356;2024-01-16T08:47:04;12.50;;;5.70;;
82722;SDS011;72450;42.008;21.356;2024-01-16T08:49:31;21.65;;;9.32;;
82722;SDS011;72450;42.008;21.356;2024-01-16T08:51:58;25.30;;;11.48;;
82722;SDS011;72450;42.008;21.356;2024-01-16T08:54:24;11.10;;;4.63;;
82722;SDS011;72450;42.008;21.356;2024-01-16T08:56:51;1.48;;;1.15;;
82722;SDS011;72450;42.008;21.356;2024-01-16T08:59:17;6.20;;;3.30;;
82722;SDS011;72450;42.008;21.356;2024-01-16T09:01:44;13.43;;;5.60;;
82722;SDS011;72450;42.008;21.356;2024-01-16T09:04:10;23.45;;;9.80;;
82722;SDS011;72450;42.008;21.356;2024-01-16T09:06:37;13.13;;;4.40;;
82722;SDS011;72450;42.008;21.356;2024-01-16T09:09:03;8.57;;;4.10;;
82722;SDS011;72450;42.008;21.356;2024-01-16T09:11:30;5.60;;;3.75;;
82722;SDS011;72450;42.008;21.356;2024-01-16T09:13:57;3.97;;;2.15;;
82722;SDS011;72450;42.008;21.356;2024-01-16T09:16:23;6.85;;;3.85;;
82722;SDS011;72450;42.008;21.356;2024-01-16T09:18:49;15.73;;;8.98;;
82722;SDS011;72450;42.008;21.356;2024-01-16T09:21:15;6.47;;;3.63;;
82722;SDS011;72450;42.008;21.356;2024-01-16T09:23:42;1.15;;;0.75;;
82722;SDS011;72450;42.008;21.356;2024-01-16T09:26:09;7.95;;;5.25;;
82722;SDS011;72450;42.008;21.356;2024-01-16T09:28:35;3.08;;;1.85;;
82722;SDS011;72450;42.008;21.356;2024-01-16T09:31:01;3.75;;;1.77;;
82722;SDS011;72450;42.008;21.356;2024-01-16T09:33:28;6.43;;;3.63;;
82722;SDS011;72450;42.008;21.356;2024-01-16T09:35:54;6.90;;;3.75;;
82722;SDS011;72450;42.008;21.356;2024-01-16T09:38:21;9.30;;;4.10;;
82722;SDS011;72450;42.008;21.356;2024-01-16T09:40:47;9.00;;;4.90;;
82722;SDS011;72450;42.008;21.356;2024-01-16T09:43:13;7.43;;;4.85;;
82722;SDS011;72450;42.008;21.356;2024-01-16T09:45:39;5.20;;;2.42;;
82722;SDS011;72450;42.008;21.356;2024-01-16T09:48:05;3.28;;;1.98;;
82722;SDS011;72450;42.008;21.356;2024-01-16T09:50:33;3.20;;;1.50;;
82722;SDS011;72450;42.008;21.356;2024-01-16T09:53:00;8.43;;;5.40;;
82722;SDS011;72450;42.008;21.356;2024-01-16T09:55:26;5.15;;;2.78;;
82722;SDS011;72450;42.008;21.356;2024-01-16T09:57:52;15.23;;;7.32;;
82722;SDS011;72450;42.008;21.356;2024-01-16T10:00:19;3.78;;;1.40;;
82722;SDS011;72450;42.008;21.356;2024-01-16T10:02:46;3.70;;;2.33;;
82722;SDS011;72450;42.008;21.356;2024-01-16T10:05:13;10.57;;;5.40;;
82722;SDS011;72450;42.008;21.356;2024-01-16T10:07:40;4.65;;;2.53;;
82722;SDS011;72450;42.008;21.356;2024-01-16T10:10:06;5.53;;;2.50;;
82722;SDS011;72450;42.008;21.356;2024-01-16T10:12:36;6.43;;;4.13;;
82722;SDS011;72450;42.008;21.356;2024-01-16T10:15:04;4.78;;;4.05;;
82722;SDS011;72450;42.008;21.356;2024-01-16T10:17:39;10.23;;;7.60;;
82722;SDS011;72450;42.008;21.356;2024-01-16T10:20:05;4.70;;;2.20;;
82722;SDS011;72450;42.008;21.356;2024-01-16T10:22:32;5.22;;;3.03;;
82722;SDS011;72450;42.008;21.356;2024-01-16T10:27:30;3.97;;;2.40;;
82722;SDS011;72450;42.008;21.356;2024-01-16T10:29:56;4.82;;;2.72;;
82722;SDS011;72450;42.008;21.356;2024-01-16T10:32:35;4.03;;;1.73;;
82722;SDS011;72450;42.008;21.356;2024-01-16T10:35:09;6.88;;;3.83;;
82722;SDS011;72450;42.008;21.356;2024-01-16T10:37:42;8.40;;;4.18;;
82722;SDS011;72450;42.008;21.356;2024-01-16T10:40:08;4.60;;;2.00;;
82722;SDS011;72450;42.008;21.356;2024-01-16T10:42:34;3.88;;;2.00;;
82722;SDS011;72450;42.008;21.356;2024-01-16T10:45:01;4.28;;;2.08;;
82722;SDS011;72450;42.008;21.356;2024-01-16T10:47:27;3.67;;;1.88;;
82722;SDS011;72450;42.008;21.356;2024-01-16T10:49:53;5.53;;;3.03;;
82722;SDS011;72450;42.008;21.356;2024-01-16T10:52:19;5.85;;;3.08;;
82722;SDS011;72450;42.008;21.356;2024-01-16T10:54:51;5.25;;;4.40;;
82722;SDS011;72450;42.008;21.356;2024-01-16T10:57:17;4.72;;;2.50;;
82722;SDS011;72450;42.008;21.356;2024-01-16T10:59:48;4.38;;;2.72;;
82722;SDS011;72450;42.008;21.356;2024-01-16T11:02:16;5.45;;;3.47;;
82722;SDS011;72450;42.008;21.356;2024-01-16T11:04:43;7.32;;;5.72;;
82722;SDS011;72450;42.008;21.356;2024-01-16T11:07:09;4.85;;;3.28;;
82722;SDS011;72450;42.008;21.356;2024-01-16T11:09:36;13.98;;;5.75;;
82722;SDS011;72450;42.008;21.356;2024-01-16T11:12:02;8.10;;;3.15;;
82722;SDS011;72450;42.008;21.356;2024-01-16T11:14:29;8.55;;;4.55;;
82722;SDS011;72450;42.008;21.356;2024-01-16T11:16:56;12.40;;;4.15;;
82722;SDS011;72450;42.008;21.356;2024-01-16T11:19:22;9.93;;;4.82;;
82722;SDS011;72450;42.008;21.356;2024-01-16T11:21:48;3.25;;;1.88;;
82722;SDS011;72450;42.008;21.356;2024-01-16T11:24:15;5.43;;;3.63;;
82722;SDS011;72450;42.008;21.356;2024-01-16T11:26:41;4.35;;;2.50;;
82722;SDS011;72450;42.008;21.356;2024-01-16T11:31:52;7.60;;;3.05;;
82722;SDS011;72450;42.008;21.356;2024-01-16T11:37:05;5.10;;;3.42;;
82722;SDS011;72450;42.008;21.356;2024-01-16T11:39:32;6.30;;;3.30;;
82722;SDS011;72450;42.008;21.356;2024-01-16T11:41:59;2.15;;;1.55;;
82722;SDS011;72450;42.008;21.356;2024-01-16T11:47:05;9.73;;;5.63;;
82722;SDS011;72450;42.008;21.356;2024-01-16T11:49:32;8.45;;;4.70;;
82722;SDS011;72450;42.008;21.356;2024-01-16T11:51:59;4.38;;;2.90;;
82722;SDS011;72450;42.008;21.356;2024-01-16T11:54:25;6.95;;;4.22;;
82722;SDS011;72450;42.008;21.356;2024-01-16T12:01:53;12.05;;;7.07;;
82722;SDS011;72450;42.008;21.356;2024-01-16T12:04:24;5.05;;;3.58;;
82722;SDS011;72450;42.008;21.356;2024-01-16T12:06:56;8.23;;;5.78;;
82722;SDS011;72450;42.008;21.356;2024-01-16T12:09:25;8.20;;;4.88;;
82722;SDS011;72450;42.008;21.356;2024-01-16T12:14:22;6.18;;;3.80;;
82722;SDS011;72450;42.008;21.356;2024-01-16T12:16:48;6.30;;;3.90;;
82722;SDS011;72450;42.008;21.356;2024-01-16T12:19:15;5.20;;;3.22;;
82722;SDS011;72450;42.008;21.356;2024-01-16T12:21:44;5.22;;;2.85;;
82722;SDS011;72450;42.008;21.356;2024-01-16T12:24:11;6.80;;;4.70;;
82722;SDS011;72450;42.008;21.356;2024-01-16T12:26:38;5.88;;;3.40;;
82722;SDS011;72450;42.008;21.356;2024-01-16T12:29:04;6.82;;;3.97;;
82722;SDS011;72450;42.008;21.356;2024-01-16T12:31:31;7.75;;;4.97;;
82722;SDS011;72450;42.008;21.356;2024-01-16T12:34:09;6.13;;;3.47;;
82722;SDS011;72450;42.008;21.356;2024-01-16T12:36:36;7.22;;;4.03;;
82722;SDS011;72450;42.008;21.356;2024-01-16T12:39:03;10.75;;;5.53;;
82722;SDS011;72450;42.008;21.356;2024-01-16T12:41:37;5.93;;;3.25;;
82722;SDS011;72450;42.008;21.356;2024-01-16T12:44:06;3.55;;;2.15;;
82722;SDS011;72450;42.008;21.356;2024-01-16T12:46:32;5.53;;;3.38;;
82722;SDS011;72450;42.008;21.356;2024-01-16T12:49:04;7.30;;;4.30;;
82722;SDS011;72450;42.008;21.356;2024-01-16T12:51:32;3.58;;;2.15;;
82722;SDS011;72450;42.008;21.356;2024-01-16T12:54:12;7.40;;;4.65;;
82722;SDS011;72450;42.008;21.356;2024-01-16T12:56:39;4.55;;;2.38;;
82722;SDS011;72450;42.008;21.356;2024-01-16T12:59:09;5.57;;;3.35;;
82722;SDS011;72450;42.008;21.356;2024-01-16T13:01:36;6.95;;;4.03;;
82722;SDS011;72450;42.008;21.356;2024-01-16T13:04:06;6.00;;;3.45;;
82722;SDS011;72450;42.008;21.356;2024-01-16T13:06:33;5.25;;;3.35;;
82722;SDS011;72450;42.008;21.356;2024-01-16T13:09:11;10.35;;;4.00;;
82722;SDS011;72450;42.008;21.356;2024-01-16T13:11:50;9.15;;;4.47;;
82722;SDS011;72450;42.008;21.356;2024-01-16T13:14:18;8.20;;;4.45;;
82722;SDS011;72450;42.008;21.356;2024-01-16T13:16:45;8.23;;;4.40;;
82722;SDS011;72450;42.008;21.356;2024-01-16T13:19:12;7.35;;;3.85;;
82722;SDS011;72450;42.008;21.356;2024-01-16T13:21:38;9.07;;;5.45;;
82722;SDS011;72450;42.008;21.356;2024-01-16T13:24:04;25.70;;;14.13;;
82722;SDS011;72450;42.008;21.356;2024-01-16T13:26:30;9.15;;;4.45;;
82722;SDS011;72450;42.008;21.356;2024-01-16T13:28:57;8.13;;;3.50;;
82722;SDS011;72450;42.008;21.356;2024-01-16T13:31:23;9.23;;;4.72;;
82722;SDS011;72450;42.008;21.356;2024-01-16T13:33:49;7.53;;;3.78;;
82722;SDS011;72450;42.008;21.356;2024-01-16T13:36:15;8.00;;;4.63;;
82722;SDS011;72450;42.008;21.356;2024-01-16T13:38:41;11.13;;;5.05;;
82722;SDS011;72450;42.008;21.356;2024-01-16T13:41:07;14.18;;;5.90;;
82722;SDS011;72450;42.008;21.356;2024-01-16T13:43:33;9.75;;;5.47;;
82722;SDS011;72450;42.008;21.356;2024-01-16T13:45:59;5.68;;;3.67;;
82722;SDS011;72450;42.008;21.356;2024-01-16T13:48:26;12.55;;;5.32;;
82722;SDS011;72450;42.008;21.356;2024-01-16T13:50:52;11.70;;;5.82;;
82722;SDS011;72450;42.008;21.356;2024-01-16T13:53:18;14.38;;;6.68;;
82722;SDS011;72450;42.008;21.356;2024-01-16T13:55:49;8.75;;;4.60;;
82722;SDS011;72450;42.008;21.356;2024-01-16T13:58:15;9.25;;;5.47;;
82722;SDS011;72450;42.008;21.356;2024-01-16T14:00:41;12.77;;;5.90;;
82722;SDS011;72450;42.008;21.356;2024-01-16T14:03:07;11.75;;;6.63;;
82722;SDS011;72450;42.008;21.356;2024-01-16T14:05:33;9.50;;;4.93;;
82722;SDS011;72450;42.008;21.356;2024-01-16T14:08:01;10.07;;;4.95;;
82722;SDS011;72450;42.008;21.356;2024-01-16T14:10:27;14.40;;;6.40;;
82722;SDS011;72450;42.008;21.356;2024-01-16T14:12:53;16.27;;;7.70;;
82722;SDS011;72450;42.008;21.356;2024-01-16T14:15:19;14.98;;;6.78;;
82722;SDS011;72450;42.008;21.356;2024-01-16T14:17:49;12.05;;;6.10;;
82722;SDS011;72450;42.008;21.356;2024-01-16T14:20:16;11.23;;;5.30;;
82722;SDS011;72450;42.008;21.356;2024-01-16T14:22:43;13.05;;;6.70;;
82722;SDS011;72450;42.008;21.356;2024-01-16T14:25:10;9.65;;;5.35;;
82722;SDS011;72450;42.008;21.356;2024-01-16T14:32:30;10.63;;;5.47;;
82722;SDS011;72450;42.008;21.356;2024-01-16T14:34:56;10.68;;;4.82;;
82722;SDS011;72450;42.008;21.356;2024-01-16T14:37:22;13.10;;;7.20;;
82722;SDS011;72450;42.008;21.356;2024-01-16T14:39:48;18.65;;;10.07;;